sensor_id;sensor_type;location;lat;lon;timestamp;pressure;altitude;pressure_sealevel;temperature;humidity
50636;BME280;36598;46.054;11.130;2023-03-01T00:00:10;99619.78;;;5.39;50.32
50636;BME280;36598;46.054;11.130;2023-03-01T00:02:35;99615.78;;;5.33;50.55
50636;BME280;36598;46.054;11.130;2023-03-01T00:05:00;99608.59;;;5.24;50.65
50636;BME280;36598;46.054;11.130;2023-03-01T00:07:26;99610.75;;;5.38;50.54
50636;BME280;36598;46.054;11.130;2023-03-01T00:09:51;99605.56;;;5.07;51.09
50636;BME280;36598;46.054;11.130;2023-03-01T00:12:16;99600.03;;;5.30;51.02
50636;BME280;36598;46.054;11.130;2023-03-01T00:14:41;99608.75;;;4.86;51.98
50636;BME280;36598;46.054;11.130;2023-03-01T00:17:07;99616.13;;;4.16;53.69
50636;BME280;36598;46.054;11.130;2023-03-01T00:19:32;99601.19;;;4.56;52.56
50636;BME280;36598;46.054;11.130;2023-03-01T00:21:57;99604.84;;;4.64;52.23
50636;BME280;36598;46.054;11.130;2023-03-01T00:24:22;99606.63;;;4.98;51.26
50636;BME280;36598;46.054;11.130;2023-03-01T00:26:48;99612.06;;;4.72;51.93
50636;BME280;36598;46.054;11.130;2023-03-01T00:29:13;99612.66;;;4.85;51.72
50636;BME280;36598;46.054;11.130;2023-03-01T00:31:38;99614.25;;;4.86;51.71
50636;BME280;36598;46.054;11.130;2023-03-01T00:34:04;99611.69;;;4.73;51.98
50636;BME280;36598;46.054;11.130;2023-03-01T00:36:31;99604.66;;;4.99;51.11
50636;BME280;36598;46.054;11.130;2023-03-01T00:38:56;99607.69;;;5.17;51.42
50636;BME280;36598;46.054;11.130;2023-03-01T00:41:22;99609.25;;;5.18;50.72
50636;BME280;36598;46.054;11.130;2023-03-01T00:43:47;99607.22;;;5.11;51.14
50636;BME280;36598;46.054;11.130;2023-03-01T00:46:14;99611.63;;;4.93;51.73
50636;BME280;36598;46.054;11.130;2023-03-01T00:48:40;99599.59;;;5.01;51.65
50636;BME280;36598;46.054;11.130;2023-03-01T00:53:31;99598.28;;;4.68;52.18
50636;BME280;36598;46.054;11.130;2023-03-01T00:55:57;99589.38;;;4.52;52.79
50636;BME280;36598;46.054;11.130;2023-03-01T00:58:23;99594.84;;;4.29;53.28
50636;BME280;36598;46.054;11.130;2023-03-01T01:00:48;99586.94;;;4.70;52.49
50636;BME280;36598;46.054;11.130;2023-03-01T01:03:13;99583.63;;;4.84;52.40
50636;BME280;36598;46.054;11.130;2023-03-01T01:05:38;99590.22;;;4.56;52.85
50636;BME280;36598;46.054;11.130;2023-03-01T01:08:04;99590.56;;;4.32;53.55
50636;BME280;36598;46.054;11.130;2023-03-01T01:10:29;99583.91;;;4.52;52.71
50636;BME280;36598;46.054;11.130;2023-03-01T01:12:54;99587.50;;;4.14;53.70
50636;BME280;36598;46.054;11.130;2023-03-01T01:15:20;99580.22;;;4.44;52.98
50636;BME280;36598;46.054;11.130;2023-03-01T01:17:45;99573.66;;;4.49;52.81
50636;BME280;36598;46.054;11.130;2023-03-01T01:20:10;99561.34;;;4.62;52.45
50636;BME280;36598;46.054;11.130;2023-03-01T01:22:36;99558.38;;;4.48;53.13
50636;BME280;36598;46.054;11.130;2023-03-01T01:25:01;99561.09;;;4.25;53.55
50636;BME280;36598;46.054;11.130;2023-03-01T01:27:26;99551.97;;;4.17;53.97
50636;BME280;36598;46.054;11.130;2023-03-01T01:29:52;99553.53;;;4.18;54.03
50636;BME280;36598;46.054;11.130;2023-03-01T01:32:18;99541.72;;;4.14;54.04
50636;BME280;36598;46.054;11.130;2023-03-01T01:34:43;99536.38;;;4.21;53.70
50636;BME280;36598;46.054;11.130;2023-03-01T01:37:08;99540.56;;;4.15;53.97
50636;BME280;36598;46.054;11.130;2023-03-01T01:39:36;99538.88;;;4.30;53.71
50636;BME280;36598;46.054;11.130;2023-03-01T01:42:02;99536.31;;;4.41;53.12
50636;BME280;36598;46.054;11.130;2023-03-01T01:44:27;99537.75;;;4.54;52.47
50636;BME280;36598;46.054;11.130;2023-03-01T01:46:55;99531.84;;;4.52;52.84
50636;BME280;36598;46.054;11.130;2023-03-01T01:49:27;99527.69;;;4.62;52.63
50636;BME280;36598;46.054;11.130;2023-03-01T01:52:16;99521.84;;;4.40;52.99
50636;BME280;36598;46.054;11.130;2023-03-01T01:57:22;99524.59;;;4.63;52.38
50636;BME280;36598;46.054;11.130;2023-03-01T01:59:50;99519.59;;;4.46;52.56
50636;BME280;36598;46.054;11.130;2023-03-01T02:02:16;99515.69;;;4.47;52.90
50636;BME280;36598;46.054;11.130;2023-03-01T02:04:42;99518.81;;;4.45;52.55
50636;BME280;36598;46.054;11.130;2023-03-01T02:07:15;99514.03;;;4.19;52.83
50636;BME280;36598;46.054;11.130;2023-03-01T02:09:46;99509.06;;;4.25;53.03
50636;BME280;36598;46.054;11.130;2023-03-01T02:12:12;99503.50;;;4.44;52.40
50636;BME280;36598;46.054;11.130;2023-03-01T02:14:38;99510.44;;;4.61;52.13
50636;BME280;36598;46.054;11.130;2023-03-01T02:17:03;99509.13;;;4.29;52.95
50636;BME280;36598;46.054;11.130;2023-03-01T02:19:52;99503.72;;;4.55;52.40
50636;BME280;36598;46.054;11.130;2023-03-01T02:22:24;99497.47;;;4.58;52.17
50636;BME280;36598;46.054;11.130;2023-03-01T02:24:57;99501.63;;;4.48;52.40
50636;BME280;36598;46.054;11.130;2023-03-01T02:27:27;99484.84;;;4.76;51.62
50636;BME280;36598;46.054;11.130;2023-03-01T02:29:55;99488.06;;;4.82;51.04
50636;BME280;36598;46.054;11.130;2023-03-01T02:32:21;99484.75;;;4.23;53.05
50636;BME280;36598;46.054;11.130;2023-03-01T02:34:51;99485.97;;;4.49;52.13
50636;BME280;36598;46.054;11.130;2023-03-01T02:37:17;99484.16;;;4.57;52.26
50636;BME280;36598;46.054;11.130;2023-03-01T02:39:49;99469.72;;;4.60;51.98
50636;BME280;36598;46.054;11.130;2023-03-01T02:42:18;99476.06;;;3.75;53.96
50636;BME280;36598;46.054;11.130;2023-03-01T02:44:46;99478.81;;;4.18;53.22
50636;BME280;36598;46.054;11.130;2023-03-01T02:47:11;99473.16;;;4.30;52.81
50636;BME280;36598;46.054;11.130;2023-03-01T02:49:37;99470.78;;;4.29;52.91
50636;BME280;36598;46.054;11.130;2023-03-01T02:55:00;99468.06;;;4.55;52.03
50636;BME280;36598;46.054;11.130;2023-03-01T02:57:27;99467.97;;;4.48;52.12
50636;BME280;36598;46.054;11.130;2023-03-01T02:59:53;99458.53;;;4.22;52.73
50636;BME280;36598;46.054;11.130;2023-03-01T03:02:20;99457.28;;;4.16;52.68
50636;BME280;36598;46.054;11.130;2023-03-01T03:05:00;99463.19;;;4.45;52.40
50636;BME280;36598;46.054;11.130;2023-03-01T03:07:26;99454.88;;;4.15;52.84
50636;BME280;36598;46.054;11.130;2023-03-01T03:09:51;99461.63;;;4.44;52.06
50636;BME280;36598;46.054;11.130;2023-03-01T03:12:16;99443.28;;;4.21;52.66
50636;BME280;36598;46.054;11.130;2023-03-01T03:14:41;99447.91;;;4.17;52.38
50636;BME280;36598;46.054;11.130;2023-03-01T03:17:07;99441.97;;;4.38;51.93
50636;BME280;36598;46.054;11.130;2023-03-01T03:19:32;99444.06;;;4.22;52.54
50636;BME280;36598;46.054;11.130;2023-03-01T03:21:57;99435.47;;;4.23;52.65
50636;BME280;36598;46.054;11.130;2023-03-01T03:24:24;99442.41;;;3.94;53.18
50636;BME280;36598;46.054;11.130;2023-03-01T03:26:49;99442.94;;;3.81;53.60
50636;BME280;36598;46.054;11.130;2023-03-01T03:29:14;99429.63;;;4.02;53.38
50636;BME280;36598;46.054;11.130;2023-03-01T03:31:40;99428.59;;;4.10;53.18
50636;BME280;36598;46.054;11.130;2023-03-01T03:34:05;99433.97;;;4.03;53.20
50636;BME280;36598;46.054;11.130;2023-03-01T03:36:30;99434.84;;;4.11;53.24
50636;BME280;36598;46.054;11.130;2023-03-01T03:38:55;99430.28;;;4.18;52.91
50636;BME280;36598;46.054;11.130;2023-03-01T03:41:21;99429.94;;;3.97;53.41
50636;BME280;36598;46.054;11.130;2023-03-01T03:43:46;99431.81;;;3.70;53.92
50636;BME280;36598;46.054;11.130;2023-03-01T03:46:11;99426.50;;;3.19;55.67
50636;BME280;36598;46.054;11.130;2023-03-01T03:48:38;99424.97;;;3.60;54.76
50636;BME280;36598;46.054;11.130;2023-03-01T03:51:03;99425.38;;;3.82;54.22
50636;BME280;36598;46.054;11.130;2023-03-01T03:53:32;99415.84;;;3.95;53.83
50636;BME280;36598;46.054;11.130;2023-03-01T03:55:57;99429.63;;;3.17;55.95
50636;BME280;36598;46.054;11.130;2023-03-01T03:58:23;99421.66;;;3.70;54.36
50636;BME280;36598;46.054;11.130;2023-03-01T04:00:50;99417.75;;;3.71;54.32
50636;BME280;36598;46.054;11.130;2023-03-01T04:03:16;99419.03;;;3.35;55.17
50636;BME280;36598;46.054;11.130;2023-03-01T04:05:42;99425.63;;;2.95;56.95
50636;BME280;36598;46.054;11.130;2023-03-01T04:08:08;99427.09;;;2.73;56.96
50636;BME280;36598;46.054;11.130;2023-03-01T04:10:37;99417.78;;;3.33;55.93
50636;BME280;36598;46.054;11.130;2023-03-01T04:13:03;99424.84;;;3.53;55.20
50636;BME280;36598;46.054;11.130;2023-03-01T04:15:29;99422.97;;;3.38;55.50
50636;BME280;36598;46.054;11.130;2023-03-01T04:17:55;99421.66;;;3.51;55.12
50636;BME280;36598;46.054;11.130;2023-03-01T04:20:25;99415.69;;;3.65;55.06
50636;BME280;36598;46.054;11.130;2023-03-01T04:22:51;99419.97;;;3.23;55.88
50636;BME280;36598;46.054;11.130;2023-03-01T04:25:17;99422.75;;;3.46;55.54
50636;BME280;36598;46.054;11.130;2023-03-01T04:27:42;99426.06;;;3.56;55.35
50636;BME280;36598;46.054;11.130;2023-03-01T04:30:08;99421.31;;;3.33;56.09
50636;BME280;36598;46.054;11.130;2023-03-01T04:32:34;99424.28;;;3.24;56.20
50636;BME280;36598;46.054;11.130;2023-03-01T04:35:00;99427.88;;;3.09;56.38
50636;BME280;36598;46.054;11.130;2023-03-01T04:37:25;99425.94;;;3.29;55.59
50636;BME280;36598;46.054;11.130;2023-03-01T04:39:50;99421.03;;;2.99;56.63
50636;BME280;36598;46.054;11.130;2023-03-01T04:42:16;99424.00;;;3.10;56.53
50636;BME280;36598;46.054;11.130;2023-03-01T04:44:42;99419.06;;;2.81;57.40
50636;BME280;36598;46.054;11.130;2023-03-01T04:47:07;99418.03;;;3.05;56.34
50636;BME280;36598;46.054;11.130;2023-03-01T04:49:32;99406.63;;;3.03;56.24
50636;BME280;36598;46.054;11.130;2023-03-01T04:51:58;99411.47;;;3.09;55.63
50636;BME280;36598;46.054;11.130;2023-03-01T04:54:27;99414.44;;;3.00;56.08
50636;BME280;36598;46.054;11.130;2023-03-01T04:56:52;99413.22;;;3.17;55.90
50636;BME280;36598;46.054;11.130;2023-03-01T04:59:17;99405.91;;;3.44;55.55
50636;BME280;36598;46.054;11.130;2023-03-01T05:01:43;99405.16;;;3.67;54.40
50636;BME280;36598;46.054;11.130;2023-03-01T05:04:08;99405.63;;;3.72;54.08
50636;BME280;36598;46.054;11.130;2023-03-01T05:06:38;99411.25;;;2.98;56.57
50636;BME280;36598;46.054;11.130;2023-03-01T05:09:03;99398.53;;;3.06;56.17
50636;BME280;36598;46.054;11.130;2023-03-01T05:11:28;99399.75;;;3.09;55.51
50636;BME280;36598;46.054;11.130;2023-03-01T05:13:58;99405.78;;;3.18;56.08
50636;BME280;36598;46.054;11.130;2023-03-01T05:16:24;99407.31;;;2.96;56.74
50636;BME280;36598;46.054;11.130;2023-03-01T05:18:49;99409.28;;;2.80;57.04
50636;BME280;36598;46.054;11.130;2023-03-01T05:21:16;99408.31;;;3.07;56.58
50636;BME280;36598;46.054;11.130;2023-03-01T05:23:41;99403.28;;;3.09;56.59
50636;BME280;36598;46.054;11.130;2023-03-01T05:26:07;99399.38;;;3.30;55.96
50636;BME280;36598;46.054;11.130;2023-03-01T05:28:33;99410.00;;;2.76;57.25
50636;BME280;36598;46.054;11.130;2023-03-01T05:30:58;99406.00;;;3.09;56.78
50636;BME280;36598;46.054;11.130;2023-03-01T05:33:24;99399.16;;;3.38;55.80
50636;BME280;36598;46.054;11.130;2023-03-01T05:35:50;99408.72;;;3.29;55.85
50636;BME280;36598;46.054;11.130;2023-03-01T05:38:16;99402.84;;;3.26;56.25
50636;BME280;36598;46.054;11.130;2023-03-01T05:40:43;99406.25;;;3.62;55.31
50636;BME280;36598;46.054;11.130;2023-03-01T05:43:09;99395.72;;;3.22;55.86
50636;BME280;36598;46.054;11.130;2023-03-01T05:45:35;99397.53;;;3.14;56.62
50636;BME280;36598;46.054;11.130;2023-03-01T05:48:01;99400.38;;;2.83;57.17
50636;BME280;36598;46.054;11.130;2023-03-01T05:50:27;99390.31;;;3.06;56.46
50636;BME280;36598;46.054;11.130;2023-03-01T05:53:12;99391.09;;;2.52;57.93
50636;BME280;36598;46.054;11.130;2023-03-01T05:55:38;99387.78;;;2.78;57.05
50636;BME280;36598;46.054;11.130;2023-03-01T05:58:04;99383.06;;;2.59;57.61
50636;BME280;36598;46.054;11.130;2023-03-01T06:00:30;99377.03;;;3.05;56.86
50636;BME280;36598;46.054;11.130;2023-03-01T06:02:55;99384.69;;;3.38;55.78
50636;BME280;36598;46.054;11.130;2023-03-01T06:05:21;99378.94;;;3.66;54.81
50636;BME280;36598;46.054;11.130;2023-03-01T06:07:47;99375.59;;;3.53;54.85
50636;BME280;36598;46.054;11.130;2023-03-01T06:10:12;99382.91;;;3.68;53.94
50636;BME280;36598;46.054;11.130;2023-03-01T06:12:40;99388.16;;;3.35;54.92
50636;BME280;36598;46.054;11.130;2023-03-01T06:15:06;99393.91;;;3.10;55.45
50636;BME280;36598;46.054;11.130;2023-03-01T06:17:33;99400.59;;;2.93;56.05
50636;BME280;36598;46.054;11.130;2023-03-01T06:20:02;99401.84;;;2.96;56.43
50636;BME280;36598;46.054;11.130;2023-03-01T06:22:28;99403.81;;;3.57;54.24
50636;BME280;36598;46.054;11.130;2023-03-01T06:24:53;99396.53;;;3.88;54.11
50636;BME280;36598;46.054;11.130;2023-03-01T06:27:18;99398.88;;;3.86;53.43
50636;BME280;36598;46.054;11.130;2023-03-01T06:29:44;99407.13;;;3.89;53.43
50636;BME280;36598;46.054;11.130;2023-03-01T06:32:09;99399.88;;;4.00;53.05
50636;BME280;36598;46.054;11.130;2023-03-01T06:34:34;99407.63;;;3.95;53.21
50636;BME280;36598;46.054;11.130;2023-03-01T06:37:00;99409.84;;;3.66;54.02
50636;BME280;36598;46.054;11.130;2023-03-01T06:39:27;99413.19;;;3.56;53.59
50636;BME280;36598;46.054;11.130;2023-03-01T06:41:53;99414.63;;;3.50;53.87
50636;BME280;36598;46.054;11.130;2023-03-01T06:44:18;99420.19;;;3.76;53.64
50636;BME280;36598;46.054;11.130;2023-03-01T06:46:43;99421.66;;;3.70;53.46
50636;BME280;36598;46.054;11.130;2023-03-01T06:49:09;99422.72;;;3.66;53.48
50636;BME280;36598;46.054;11.130;2023-03-01T06:51:37;99418.19;;;3.96;53.17
50636;BME280;36598;46.054;11.130;2023-03-01T06:54:05;99427.06;;;4.36;52.11
50636;BME280;36598;46.054;11.130;2023-03-01T06:56:31;99434.72;;;4.76;51.32
50636;BME280;36598;46.054;11.130;2023-03-01T06:58:56;99433.06;;;4.98;51.01
50636;BME280;36598;46.054;11.130;2023-03-01T07:01:22;99423.28;;;5.00;51.18
50636;BME280;36598;46.054;11.130;2023-03-01T07:03:47;99422.59;;;5.07;50.93
50636;BME280;36598;46.054;11.130;2023-03-01T07:06:12;99416.69;;;5.05;50.72
50636;BME280;36598;46.054;11.130;2023-03-01T07:08:38;99428.91;;;5.41;50.66
50636;BME280;36598;46.054;11.130;2023-03-01T07:11:03;99426.59;;;5.47;49.85
50636;BME280;36598;46.054;11.130;2023-03-01T07:13:29;99427.63;;;5.35;50.70
50636;BME280;36598;46.054;11.130;2023-03-01T07:15:54;99419.66;;;5.57;49.83
50636;BME280;36598;46.054;11.130;2023-03-01T07:18:19;99420.16;;;5.66;50.11
50636;BME280;36598;46.054;11.130;2023-03-01T07:20:44;99414.13;;;5.90;49.42
50636;BME280;36598;46.054;11.130;2023-03-01T07:23:10;99410.59;;;5.90;48.48
50636;BME280;36598;46.054;11.130;2023-03-01T07:25:35;99406.06;;;6.05;47.95
50636;BME280;36598;46.054;11.130;2023-03-01T07:28:01;99404.81;;;5.98;47.75
50636;BME280;36598;46.054;11.130;2023-03-01T07:30:26;99423.72;;;5.33;48.62
50636;BME280;36598;46.054;11.130;2023-03-01T07:32:53;99419.28;;;5.58;48.66
50636;BME280;36598;46.054;11.130;2023-03-01T07:35:18;99417.78;;;5.64;48.45
50636;BME280;36598;46.054;11.130;2023-03-01T07:37:44;99407.00;;;5.86;48.01
50636;BME280;36598;46.054;11.130;2023-03-01T07:40:09;99405.34;;;5.74;47.61
50636;BME280;36598;46.054;11.130;2023-03-01T07:42:35;99401.38;;;6.09;46.10
50636;BME280;36598;46.054;11.130;2023-03-01T07:45:00;99401.69;;;6.00;46.48
50636;BME280;36598;46.054;11.130;2023-03-01T07:47:25;99402.50;;;6.00;46.38
50636;BME280;36598;46.054;11.130;2023-03-01T07:49:50;99408.75;;;6.01;46.85
50636;BME280;36598;46.054;11.130;2023-03-01T07:52:16;99402.09;;;5.61;47.90
50636;BME280;36598;46.054;11.130;2023-03-01T07:54:42;99411.91;;;6.03;46.37
50636;BME280;36598;46.054;11.130;2023-03-01T07:57:07;99405.84;;;6.27;46.92
50636;BME280;36598;46.054;11.130;2023-03-01T07:59:33;99406.19;;;6.22;47.00
50636;BME280;36598;46.054;11.130;2023-03-01T08:01:58;99407.53;;;6.43;46.35
50636;BME280;36598;46.054;11.130;2023-03-01T08:04:24;99409.09;;;6.40;46.50
50636;BME280;36598;46.054;11.130;2023-03-01T08:06:51;99403.03;;;6.17;46.96
50636;BME280;36598;46.054;11.130;2023-03-01T08:09:17;99399.56;;;5.83;47.99
50636;BME280;36598;46.054;11.130;2023-03-01T08:11:42;99395.81;;;6.01;47.78
50636;BME280;36598;46.054;11.130;2023-03-01T08:14:07;99401.47;;;5.78;48.95
50636;BME280;36598;46.054;11.130;2023-03-01T08:16:33;99407.97;;;6.00;48.08
50636;BME280;36598;46.054;11.130;2023-03-01T08:19:03;99405.34;;;5.74;49.59
50636;BME280;36598;46.054;11.130;2023-03-01T08:21:28;99400.25;;;6.13;48.30
50636;BME280;36598;46.054;11.130;2023-03-01T08:23:53;99401.56;;;6.34;48.02
50636;BME280;36598;46.054;11.130;2023-03-01T08:26:19;99393.81;;;6.43;47.11
50636;BME280;36598;46.054;11.130;2023-03-01T08:28:45;99395.72;;;6.42;46.60
50636;BME280;36598;46.054;11.130;2023-03-01T08:31:15;99386.88;;;6.67;46.33
50636;BME280;36598;46.054;11.130;2023-03-01T08:33:40;99383.47;;;6.91;45.46
50636;BME280;36598;46.054;11.130;2023-03-01T08:36:06;99380.34;;;6.93;45.43
50636;BME280;36598;46.054;11.130;2023-03-01T08:38:32;99374.16;;;7.17;44.23
50636;BME280;36598;46.054;11.130;2023-03-01T08:40:59;99371.03;;;7.22;43.80
50636;BME280;36598;46.054;11.130;2023-03-01T08:43:24;99365.53;;;7.26;43.32
50636;BME280;36598;46.054;11.130;2023-03-01T08:45:49;99366.50;;;6.78;43.77
50636;BME280;36598;46.054;11.130;2023-03-01T08:48:15;99354.50;;;6.39;44.59
50636;BME280;36598;46.054;11.130;2023-03-01T08:50:40;99354.41;;;6.97;43.12
50636;BME280;36598;46.054;11.130;2023-03-01T08:53:06;99355.78;;;6.56;43.52
50636;BME280;36598;46.054;11.130;2023-03-01T08:55:31;99348.41;;;6.70;44.21
50636;BME280;36598;46.054;11.130;2023-03-01T08:57:56;99341.22;;;6.48;43.87
50636;BME280;36598;46.054;11.130;2023-03-01T09:00:24;99337.56;;;7.02;43.54
50636;BME280;36598;46.054;11.130;2023-03-01T09:02:49;99331.84;;;6.56;43.98
50636;BME280;36598;46.054;11.130;2023-03-01T09:05:15;99339.00;;;6.78;44.07
50636;BME280;36598;46.054;11.130;2023-03-01T09:07:40;99332.34;;;6.83;43.99
50636;BME280;36598;46.054;11.130;2023-03-01T09:10:05;99307.72;;;7.19;43.80
50636;BME280;36598;46.054;11.130;2023-03-01T09:12:31;99314.06;;;7.44;43.15
50636;BME280;36598;46.054;11.130;2023-03-01T09:14:56;99306.59;;;7.52;42.36
50636;BME280;36598;46.054;11.130;2023-03-01T09:17:21;99298.75;;;7.58;42.58
50636;BME280;36598;46.054;11.130;2023-03-01T09:19:47;99308.97;;;7.46;42.54
50636;BME280;36598;46.054;11.130;2023-03-01T09:22:12;99295.59;;;7.41;42.30
50636;BME280;36598;46.054;11.130;2023-03-01T09:24:37;99283.72;;;7.19;42.43
50636;BME280;36598;46.054;11.130;2023-03-01T09:27:02;99288.81;;;7.10;42.77
50636;BME280;36598;46.054;11.130;2023-03-01T09:29:28;99288.88;;;7.28;42.26
50636;BME280;36598;46.054;11.130;2023-03-01T09:31:53;99279.81;;;7.27;42.30
50636;BME280;36598;46.054;11.130;2023-03-01T09:34:20;99278.94;;;6.88;42.74
50636;BME280;36598;46.054;11.130;2023-03-01T09:36:48;99277.31;;;6.76;43.28
50636;BME280;36598;46.054;11.130;2023-03-01T09:39:13;99266.03;;;7.10;42.67
50636;BME280;36598;46.054;11.130;2023-03-01T09:42:00;99265.22;;;7.02;42.45
50636;BME280;36598;46.054;11.130;2023-03-01T09:46:58;99249.91;;;7.08;42.54
50636;BME280;36598;46.054;11.130;2023-03-01T09:49:28;99246.44;;;7.43;41.97
50636;BME280;36598;46.054;11.130;2023-03-01T09:52:00;99241.31;;;7.49;41.95
50636;BME280;36598;46.054;11.130;2023-03-01T09:54:35;99238.97;;;7.55;41.61
50636;BME280;36598;46.054;11.130;2023-03-01T09:57:20;99240.91;;;7.40;41.62
50636;BME280;36598;46.054;11.130;2023-03-01T10:07:40;99228.75;;;7.55;41.57
50636;BME280;36598;46.054;11.130;2023-03-01T10:10:10;99219.28;;;7.70;41.53
50636;BME280;36598;46.054;11.130;2023-03-01T10:12:40;99214.19;;;7.30;42.50
50636;BME280;36598;46.054;11.130;2023-03-01T10:17:53;99198.44;;;7.69;42.06
50636;BME280;36598;46.054;11.130;2023-03-01T10:20:37;99195.69;;;7.62;41.93
50636;BME280;36598;46.054;11.130;2023-03-01T10:23:08;99196.00;;;8.14;40.57
50636;BME280;36598;46.054;11.130;2023-03-01T10:28:25;99179.81;;;8.23;41.07
50636;BME280;36598;46.054;11.130;2023-03-01T10:30:51;99176.59;;;8.46;40.78
50636;BME280;36598;46.054;11.130;2023-03-01T10:33:29;99168.06;;;8.93;40.29
50636;BME280;36598;46.054;11.130;2023-03-01T10:35:55;99159.50;;;8.76;40.02
50636;BME280;36598;46.054;11.130;2023-03-01T10:38:20;99158.06;;;9.13;39.28
50636;BME280;36598;46.054;11.130;2023-03-01T10:40:53;99139.78;;;9.34;38.99
50636;BME280;36598;46.054;11.130;2023-03-01T10:43:19;99133.38;;;8.95;39.00
50636;BME280;36598;46.054;11.130;2023-03-01T10:45:45;99132.28;;;9.34;38.97
50636;BME280;36598;46.054;11.130;2023-03-01T10:50:39;99131.78;;;9.46;38.73
50636;BME280;36598;46.054;11.130;2023-03-01T10:53:10;99120.97;;;9.59;38.68
50636;BME280;36598;46.054;11.130;2023-03-01T10:55:41;99119.91;;;9.01;39.63
50636;BME280;36598;46.054;11.130;2023-03-01T10:58:07;99115.91;;;9.09;38.65
50636;BME280;36598;46.054;11.130;2023-03-01T11:00:33;99105.16;;;9.22;39.00
50636;BME280;36598;46.054;11.130;2023-03-01T11:03:11;99117.28;;;8.87;38.87
50636;BME280;36598;46.054;11.130;2023-03-01T11:05:37;99111.69;;;8.94;38.92
50636;BME280;36598;46.054;11.130;2023-03-01T11:08:14;99109.00;;;8.87;38.89
50636;BME280;36598;46.054;11.130;2023-03-01T11:10:39;99106.41;;;8.62;39.45
50636;BME280;36598;46.054;11.130;2023-03-01T11:13:08;99106.75;;;8.67;39.68
50636;BME280;36598;46.054;11.130;2023-03-01T11:15:41;99102.91;;;8.54;39.66
50636;BME280;36598;46.054;11.130;2023-03-01T11:18:18;99108.84;;;8.49;39.96
50636;BME280;36598;46.054;11.130;2023-03-01T11:20:44;99108.47;;;8.36;40.00
50636;BME280;36598;46.054;11.130;2023-03-01T11:23:11;99113.63;;;8.38;40.16
50636;BME280;36598;46.054;11.130;2023-03-01T11:25:37;99108.47;;;8.43;40.75
50636;BME280;36598;46.054;11.130;2023-03-01T11:28:05;99098.50;;;8.60;40.63
50636;BME280;36598;46.054;11.130;2023-03-01T11:30:32;99088.63;;;8.66;40.88
50636;BME280;36598;46.054;11.130;2023-03-01T11:35:25;99090.63;;;8.66;40.45
50636;BME280;36598;46.054;11.130;2023-03-01T11:40:23;99090.09;;;8.82;40.75
50636;BME280;36598;46.054;11.130;2023-03-01T11:45:20;99092.16;;;8.70;40.62
50636;BME280;36598;46.054;11.130;2023-03-01T11:48:09;99078.28;;;8.77;40.33
50636;BME280;36598;46.054;11.130;2023-03-01T11:50:41;99073.03;;;8.97;40.37
50636;BME280;36598;46.054;11.130;2023-03-01T11:56:00;99069.91;;;8.95;41.19
50636;BME280;36598;46.054;11.130;2023-03-01T12:06:03;99059.16;;;9.08;41.51
50636;BME280;36598;46.054;11.130;2023-03-01T12:08:42;99061.16;;;9.04;42.33
50636;BME280;36598;46.054;11.130;2023-03-01T12:16:28;99064.78;;;8.94;42.13
50636;BME280;36598;46.054;11.130;2023-03-01T12:26:37;99058.91;;;8.88;41.38
50636;BME280;36598;46.054;11.130;2023-03-01T12:31:44;99063.91;;;9.04;41.76
50636;BME280;36598;46.054;11.130;2023-03-01T12:46:52;99086.53;;;8.85;41.21
50636;BME280;36598;46.054;11.130;2023-03-01T12:49:31;99087.69;;;8.91;41.30
50636;BME280;36598;46.054;11.130;2023-03-01T12:54:27;99086.13;;;8.86;41.52
50636;BME280;36598;46.054;11.130;2023-03-01T12:56:53;99078.56;;;8.94;42.31
50636;BME280;36598;46.054;11.130;2023-03-01T13:04:44;99075.66;;;8.60;42.93
50636;BME280;36598;46.054;11.130;2023-03-01T13:15:29;99076.22;;;8.92;41.85
50636;BME280;36598;46.054;11.130;2023-03-01T13:23:08;99073.72;;;9.09;41.23
50636;BME280;36598;46.054;11.130;2023-03-01T13:25:34;99072.00;;;9.25;40.99
50636;BME280;36598;46.054;11.130;2023-03-01T13:30:43;99074.16;;;9.45;41.18
50636;BME280;36598;46.054;11.130;2023-03-01T13:35:52;99059.03;;;9.60;40.93
50636;BME280;36598;46.054;11.130;2023-03-01T13:41:02;99053.56;;;9.53;40.31
50636;BME280;36598;46.054;11.130;2023-03-01T13:43:38;99052.31;;;9.61;40.41
50636;BME280;36598;46.054;11.130;2023-03-01T13:46:23;99060.88;;;9.70;40.43
50636;BME280;36598;46.054;11.130;2023-03-01T13:48:52;99063.91;;;9.79;39.46
50636;BME280;36598;46.054;11.130;2023-03-01T13:51:21;99064.38;;;9.74;39.87
50636;BME280;36598;46.054;11.130;2023-03-01T13:53:48;99057.09;;;9.91;39.25
50636;BME280;36598;46.054;11.130;2023-03-01T13:56:17;99055.31;;;9.74;40.23
50636;BME280;36598;46.054;11.130;2023-03-01T13:58:48;99050.69;;;9.98;40.12
50636;BME280;36598;46.054;11.130;2023-03-01T14:01:22;99050.63;;;9.67;39.88
50636;BME280;36598;46.054;11.130;2023-03-01T14:03:48;99053.28;;;9.78;39.66
50636;BME280;36598;46.054;11.130;2023-03-01T14:06:14;99052.13;;;9.38;39.66
50636;BME280;36598;46.054;11.130;2023-03-01T14:08:40;99045.50;;;9.32;39.71
50636;BME280;36598;46.054;11.130;2023-03-01T14:21:36;99028.00;;;9.45;39.64
50636;BME280;36598;46.054;11.130;2023-03-01T14:24:01;99036.97;;;9.57;39.96
50636;BME280;36598;46.054;11.130;2023-03-01T14:26:27;99034.44;;;9.69;39.71
50636;BME280;36598;46.054;11.130;2023-03-01T14:28:52;99037.38;;;9.55;40.23
50636;BME280;36598;46.054;11.130;2023-03-01T14:33:58;99021.59;;;9.56;39.83
50636;BME280;36598;46.054;11.130;2023-03-01T14:36:28;99021.41;;;9.36;40.23
50636;BME280;36598;46.054;11.130;2023-03-01T14:38:53;99014.41;;;9.24;41.14
50636;BME280;36598;46.054;11.130;2023-03-01T14:41:23;99011.28;;;9.25;41.60
50636;BME280;36598;46.054;11.130;2023-03-01T14:46:19;99011.91;;;9.37;42.14
50636;BME280;36598;46.054;11.130;2023-03-01T14:48:47;99002.28;;;9.52;41.64
50636;BME280;36598;46.054;11.130;2023-03-01T14:51:13;99001.25;;;9.39;41.99
50636;BME280;36598;46.054;11.130;2023-03-01T14:53:38;98993.69;;;9.46;41.87
50636;BME280;36598;46.054;11.130;2023-03-01T14:56:03;98984.72;;;9.69;41.63